Noxen, PA (18636)

8:34 AM EDT on May 28, 2015 (GMT -0400)
LakeHouse | | Change Station
CLOSE
Current Station
Personal Weather Station
Location: Harveys Lake, PA
Elevation: 1253 ft
Nearby Weather Stations

Elev 1253 ft 41.36 °N, 76.06 °W | Updated 5 minutes ago

Partly Cloudy
Partly Cloudy
69.4 °F
Feels Like 69.4 °F
N
2.2
Wind Variable Wind from SW

Today
High -- | Low -- °F
--% Chance of Precip.
Yesterday
High -- | Low -- °F
Precip. -- in
5:35 AM 8:28 PM
Waxing Gibbous, 75% visible
Pressure 30.15 in
Visibility 8.0 miles
Clouds Scattered Clouds 1400 ft
Dew Point 65 °F
Humidity 87%
Rainfall 0.00 in
Snow Depth Not available.
UV 2 out of 12
Pollen 9.40 out of 12
Air Quality Not available.
Flu Activity Sporadic
METAR KAVP 281154Z 27004KT 8SM SCT014 22/18 A3017 RMK AO2 SLP208 70082 T02220183 10222 20172 51013

More Conditions Fewer Conditions

Pressure 30.15 in
Visibility 8.0 miles
Clouds Scattered Clouds 1400 ft
Dew Point 65 °F
Humidity 87%
Rainfall 0.00 in
Snow Depth Not available.
UV 2 out of 12
Pollen 9.40 out of 12
Air Quality Not available.
Flu Activity Sporadic
METAR KAVP 281154Z 27004KT 8SM SCT014 22/18 A3017 RMK AO2 SLP208 70082 T02220183 10222 20172 51013

More Conditions Fewer Conditions

10-Day Weather Forecast

Almanac

Astronomy

May. 28, 2015 Rise Set
Actual Time
Civil Twilight
Nautical Twilight
Astronomical Twilight
Moon
Length of Visible Light
Length of Day
Tomorrow will be .
, % of the Moon is Illuminated

Today's Extremes

State Highs State Lows

Community

WunderPhotos

Upload Photos

1,824,960 photos uploaded!

WunderBlogs® & News

Nearby

Air Quality

  Air Quality AQ Index Pollutant
Not available.

Snow Depth

Station Depth Elevation

Earthquake Activity

City Distance Mag. Time & Date
Minimum magnitude displayed is 2.5.

Coastal Water Temperatures

Place Temperature

Stations

Nearby Weather Stations

Station Location Temp. Windchill Dew Point Humidity Wind Precip. Elev Updated Type